Guild, Tennessee
Current Conditions -  °F | °C
As of 9:53 AM on Wednesday 28 Jan 2015 (Local Time) from KCHA Reporting Station
Clear Clear  
Wind Chill: 32°   Ceiling: Unl
Heat Index: 38°   Visibility: 10mi
Dew Point: 20°   Wind: 8mph
Humidity: 48%   Direction: 20°NNE
Pressure: 30.36"   Gusts: NA
Location:  35.04°N, 85.53°W
Report Text: KCHA 281553Z 02007KT 10SM CLR 03/M07 A3036 RMK AO2 SLP286 T00331067
Loading
Personal Weather Stations






























Interactive Weather Map New forecast layout! Learn more

10-Day Weather Forecast

Advertisements
Track Severe Weather on mobile